Time;durP1;ratioP1;P1;durP2;ratioP2;P2;SDS_P1;SDS_P2;PMS_P1;PMS_P2;Temp;Humidity;BMP_temperature;BMP_pressure;BME280_temperature;BME280_humidity;BME280_pressure;Samples;Min_cycle;Max_cycle;Signal;HPM_P1;HPM_P2
2023/03/27 00:00:28;;;;;;;2.27;1.50;;;7.10;91.10;;;;;;5029881;28;20420;-76
2023/03/27 00:02:53;;;;;;;1.77;1.20;;;7.20;91.20;;;;;;5025629;28;20205;-74
2023/03/27 00:05:20;;;;;;;2.10;1.40;;;7.10;91.20;;;;;;5029605;28;20660;-74
2023/03/27 00:07:47;;;;;;;2.00;1.50;;;7.10;91.00;;;;;;5024745;28;20235;-74
2023/03/27 00:10:14;;;;;;;2.47;1.67;;;7.00;91.10;;;;;;5027479;28;20432;-74
2023/03/27 00:12:40;;;;;;;2.63;1.50;;;6.90;91.00;;;;;;5026015;28;20471;-74
2023/03/27 00:15:06;;;;;;;1.60;1.50;;;6.90;91.20;;;;;;5029533;28;21124;-74
2023/03/27 00:17:32;;;;;;;2.93;1.60;;;6.90;91.10;;;;;;5024758;28;20425;-74
2023/03/27 00:19:58;;;;;;;2.40;1.40;;;7.00;90.80;;;;;;5028249;28;20420;-73
2023/03/27 00:22:24;;;;;;;2.53;1.80;;;6.90;90.40;;;;;;5027296;28;20869;-74
2023/03/27 00:24:49;;;;;;;1.97;1.50;;;6.90;90.30;;;;;;5025583;28;20265;-76
2023/03/27 00:27:15;;;;;;;2.10;1.43;;;6.90;90.60;;;;;;5028842;28;20683;-74
2023/03/27 00:29:41;;;;;;;3.87;1.50;;;6.90;90.80;;;;;;5030895;28;20227;-73
2023/03/27 00:32:06;;;;;;;3.03;1.73;;;6.90;90.70;;;;;;5028587;28;20947;-74
2023/03/27 00:34:32;;;;;;;2.13;1.30;;;6.90;90.60;;;;;;5031822;28;20197;-74
2023/03/27 00:36:58;;;;;;;2.57;2.20;;;6.90;90.60;;;;;;5033266;28;20641;-75
2023/03/27 00:39:23;;;;;;;2.33;1.80;;;6.80;91.00;;;;;;5034363;28;20704;-74
2023/03/27 00:41:49;;;;;;;3.60;1.80;;;6.90;91.30;;;;;;5032938;28;20204;-74
2023/03/27 00:44:29;;;;;;;3.47;2.10;;;6.90;91.50;;;;;;5031479;28;20193;-74
2023/03/27 00:46:56;;;;;;;2.97;2.03;;;6.80;91.50;;;;;;5027224;28;20957;-74
2023/03/27 00:49:24;;;;;;;3.80;2.17;;;6.80;91.50;;;;;;5030783;28;20427;-74
2023/03/27 00:51:51;;;;;;;2.03;1.77;;;6.80;91.20;;;;;;5027394;28;20459;-74
2023/03/27 00:54:25;;;;;;;3.77;2.10;;;6.90;91.20;;;;;;5025527;28;20506;-74
2023/03/27 00:56:56;;;;;;;2.40;1.80;;;6.90;91.30;;;;;;5024311;28;20423;-74
2023/03/27 00:59:27;;;;;;;2.57;1.40;;;6.90;91.10;;;;;;5026230;28;20446;-73
2023/03/27 01:01:53;;;;;;;2.67;2.13;;;6.90;90.90;;;;;;5031418;28;20459;-75
2023/03/27 01:04:21;;;;;;;2.20;1.77;;;6.80;89.90;;;;;;5024982;28;20957;-74
2023/03/27 01:06:50;;;;;;;2.00;1.50;;;6.90;89.70;;;;;;5037798;28;20197;-73
2023/03/27 01:09:16;;;;;;;2.27;1.60;;;6.80;89.90;;;;;;5030112;28;20423;-73
2023/03/27 01:11:54;;;;;;;2.10;1.60;;;6.80;89.90;;;;;;5033075;28;20467;-74
2023/03/27 01:14:30;;;;;;;1.90;1.40;;;6.80;90.10;;;;;;5033539;28;20192;-74
2023/03/27 01:17:20;;;;;;;2.57;1.60;;;6.70;90.20;;;;;;5034681;28;20543;-76
2023/03/27 01:19:54;;;;;;;2.73;1.50;;;6.60;90.80;;;;;;5036238;28;20447;-75
2023/03/27 01:22:26;;;;;;;1.60;1.00;;;6.50;90.20;;;;;;5039331;28;20591;-74
2023/03/27 01:25:27;;;;;;;1.67;1.47;;;6.30;89.60;;;;;;5038234;28;20419;-75
2023/03/27 01:28:07;;;;;;;1.90;1.20;;;6.30;90.10;;;;;;5031463;28;20540;-74
2023/03/27 01:30:38;;;;;;;1.90;1.17;;;6.30;89.60;;;;;;5036419;28;20447;-76
2023/03/27 01:33:25;;;;;;;1.40;1.20;;;6.30;88.90;;;;;;5035300;28;20458;-75
2023/03/27 01:36:17;;;;;;;2.73;1.57;;;6.30;89.00;;;;;;5033886;28;20412;-75
2023/03/27 01:39:03;;;;;;;1.90;1.30;;;6.30;88.60;;;;;;5021265;28;20456;-75
2023/03/27 01:41:31;;;;;;;2.40;1.67;;;6.30;88.90;;;;;;5033109;28;20483;-75
2023/03/27 01:44:10;;;;;;;1.60;1.13;;;6.30;89.00;;;;;;5036314;28;20416;-76
2023/03/27 01:46:52;;;;;;;3.03;1.53;;;6.40;89.30;;;;;;5024531;28;20460;-76
2023/03/27 01:49:29;;;;;;;2.93;1.60;;;6.30;88.90;;;;;;5030584;28;21298;-75
2023/03/27 01:52:03;;;;;;;2.77;2.00;;;6.30;89.20;;;;;;5026614;28;20504;-75
2023/03/27 01:54:36;;;;;;;2.63;1.90;;;6.30;89.90;;;;;;5025335;28;20428;-75
2023/03/27 01:57:19;;;;;;;2.53;1.87;;;6.40;90.20;;;;;;5028873;28;20415;-76
2023/03/27 01:59:52;;;;;;;2.20;1.60;;;6.20;90.20;;;;;;5026139;28;20425;-75
2023/03/27 02:02:26;;;;;;;6.03;2.07;;;6.20;90.30;;;;;;5028504;28;21247;-77
2023/03/27 02:05:00;;;;;;;3.70;1.80;;;6.10;90.10;;;;;;5026396;28;20419;-75
2023/03/27 02:07:33;;;;;;;2.57;1.73;;;6.00;90.00;;;;;;5025693;28;20626;-76
2023/03/27 02:10:03;;;;;;;2.50;1.53;;;6.00;90.40;;;;;;5030151;28;20408;-76
2023/03/27 02:12:32;;;;;;;3.87;2.23;;;6.00;90.40;;;;;;5027961;28;20870;-75
2023/03/27 02:15:15;;;;;;;5.80;2.30;;;5.90;90.50;;;;;;5032567;28;20416;-75
2023/03/27 02:17:46;;;;;;;6.37;3.30;;;5.70;90.50;;;;;;5028331;28;20412;-75
2023/03/27 02:20:16;;;;;;;7.83;3.50;;;5.50;90.50;;;;;;5032057;28;20412;-74
2023/03/27 02:22:44;;;;;;;8.60;3.77;;;5.40;90.40;;;;;;5030560;28;20451;-75
2023/03/27 02:25:29;;;;;;;10.97;4.70;;;5.30;89.20;;;;;;5028279;28;20411;-76
2023/03/27 02:28:36;;;;;;;11.93;3.87;;;5.20;89.30;;;;;;5026555;28;20463;-76
2023/03/27 02:31:08;;;;;;;13.27;4.53;;;5.10;89.00;;;;;;4998320;28;20423;-77
2023/03/27 02:33:41;;;;;;;13.13;5.13;;;5.10;89.30;;;;;;5027574;28;20455;-76
2023/03/27 02:36:27;;;;;;;12.23;5.17;;;5.00;88.90;;;;;;5030141;28;20427;-75
2023/03/27 02:39:08;;;;;;;15.27;6.17;;;5.10;88.70;;;;;;5023037;28;21314;-76
2023/03/27 02:41:37;;;;;;;17.60;6.00;;;5.10;88.90;;;;;;5032769;28;20457;-75
2023/03/27 02:44:13;;;;;;;12.83;5.53;;;5.10;88.00;;;;;;5037311;28;21070;-75
2023/03/27 02:47:17;;;;;;;16.43;6.53;;;5.00;88.10;;;;;;5031310;28;20428;-74
2023/03/27 02:50:10;;;;;;;23.77;6.73;;;4.90;88.00;;;;;;5031323;28;20581;-75
2023/03/27 02:52:42;;;;;;;21.57;7.03;;;4.90;88.40;;;;;;5034778;28;20462;-75
2023/03/27 02:55:16;;;;;;;14.50;6.07;;;4.90;88.70;;;;;;5037670;28;20427;-76
2023/03/27 02:57:45;;;;;;;17.93;6.67;;;4.90;88.60;;;;;;5037128;28;20562;-75
2023/03/27 03:00:17;;;;;;;17.33;7.90;;;4.90;89.00;;;;;;5032582;28;20491;-76
2023/03/27 03:02:45;;;;;;;13.63;5.90;;;4.70;88.60;;;;;;5028616;28;20452;-75
2023/03/27 03:05:19;;;;;;;20.57;7.97;;;4.70;88.70;;;;;;5028284;28;20510;-74
2023/03/27 03:07:45;;;;;;;22.83;7.50;;;4.70;89.30;;;;;;5025809;28;20416;-74
2023/03/27 03:10:12;;;;;;;20.37;7.20;;;4.70;89.20;;;;;;5028023;28;20983;-74
2023/03/27 03:12:37;;;;;;;18.03;7.57;;;4.60;89.30;;;;;;5027892;28;20475;-76
2023/03/27 03:15:04;;;;;;;16.07;6.80;;;4.60;90.00;;;;;;5030093;28;20469;-74
2023/03/27 03:17:30;;;;;;;24.47;7.47;;;4.70;90.20;;;;;;5027917;28;20586;-75
2023/03/27 03:19:55;;;;;;;11.17;5.50;;;4.50;89.20;;;;;;5032675;28;20424;-74
2023/03/27 03:22:21;;;;;;;22.80;7.20;;;4.50;89.30;;;;;;5026791;28;20755;-73
2023/03/27 03:24:47;;;;;;;19.23;7.53;;;4.40;88.60;;;;;;5026846;28;20680;-74
2023/03/27 03:27:13;;;;;;;27.97;7.50;;;4.20;89.30;;;;;;5026291;28;20319;-74
2023/03/27 03:29:38;;;;;;;18.63;7.30;;;4.20;89.50;;;;;;5025477;28;20923;-75
2023/03/27 03:32:05;;;;;;;8.87;5.10;;;4.20;89.70;;;;;;5022598;28;20479;-74
2023/03/27 03:34:32;;;;;;;14.27;6.80;;;4.10;89.60;;;;;;5023302;28;20859;-75
2023/03/27 03:36:58;;;;;;;25.80;7.93;;;4.10;89.60;;;;;;5022929;28;20471;-75
2023/03/27 03:39:24;;;;;;;22.23;7.73;;;4.10;90.30;;;;;;5026108;28;20420;-74
2023/03/27 03:41:50;;;;;;;18.53;6.70;;;4.10;90.60;;;;;;5026869;28;20455;-74
2023/03/27 03:44:16;;;;;;;15.80;7.00;;;4.20;90.40;;;;;;5028952;28;20186;-76
2023/03/27 03:46:41;;;;;;;14.33;5.90;;;4.20;90.10;;;;;;5028690;28;20181;-76
2023/03/27 03:49:07;;;;;;;22.87;6.87;;;4.30;90.00;;;;;;5029927;28;20501;-75
2023/03/27 03:51:35;;;;;;;16.40;6.10;;;4.30;88.70;;;;;;5026957;28;20220;-75
2023/03/27 03:54:00;;;;;;;16.60;6.63;;;4.30;88.40;;;;;;5028773;28;20460;-75
2023/03/27 03:56:28;;;;;;;13.03;5.80;;;4.40;87.80;;;;;;5027807;28;20454;-75
2023/03/27 03:58:54;;;;;;;11.30;5.40;;;4.40;87.80;;;;;;5027490;28;20196;-76
2023/03/27 04:01:21;;;;;;;11.03;5.27;;;4.30;87.00;;;;;;5027577;28;20482;-76
2023/03/27 04:03:48;;;;;;;16.07;4.30;;;4.30;87.10;;;;;;5031072;28;20450;-76
2023/03/27 04:06:16;;;;;;;13.10;5.07;;;4.20;86.60;;;;;;5030575;28;20447;-75
2023/03/27 04:08:42;;;;;;;9.90;4.30;;;4.20;86.20;;;;;;5029956;28;20491;-75
2023/03/27 04:11:08;;;;;;;10.57;5.50;;;4.10;85.60;;;;;;5024861;28;20496;-76
2023/03/27 04:13:33;;;;;;;11.80;4.93;;;4.10;85.20;;;;;;5029774;28;20466;-77
2023/03/27 04:16:00;;;;;;;20.23;5.03;;;4.00;85.70;;;;;;5031467;28;20189;-74
2023/03/27 04:18:31;;;;;;;15.33;4.70;;;4.00;86.00;;;;;;5031066;28;20209;-77
2023/03/27 04:20:57;;;;;;;13.53;4.87;;;3.90;85.90;;;;;;5026549;28;20417;-78
2023/03/27 04:23:29;;;;;;;7.93;4.30;;;3.90;85.60;;;;;;5033814;28;20423;-77
2023/03/27 04:25:58;;;;;;;13.83;4.37;;;3.80;85.30;;;;;;5027384;28;20571;-76
2023/03/27 04:28:25;;;;;;;13.80;4.63;;;3.80;84.90;;;;;;5035608;28;20427;-77
2023/03/27 04:30:52;;;;;;;9.93;3.67;;;3.80;85.20;;;;;;5029445;28;20793;-77
2023/03/27 04:33:18;;;;;;;5.87;3.20;;;3.70;84.30;;;;;;5029321;28;20451;-76
2023/03/27 04:35:44;;;;;;;7.37;3.80;;;3.80;84.30;;;;;;5026104;28;20416;-77
2023/03/27 04:38:11;;;;;;;7.73;3.03;;;3.80;84.10;;;;;;5033728;28;20598;-77
2023/03/27 04:40:37;;;;;;;17.47;4.37;;;3.70;83.40;;;;;;5028160;28;20422;-75
2023/03/27 04:43:03;;;;;;;9.43;4.00;;;3.80;84.00;;;;;;5035859;28;20436;-76
2023/03/27 04:45:31;;;;;;;9.03;3.40;;;3.80;84.00;;;;;;5040351;28;20419;-75
2023/03/27 04:47:57;;;;;;;13.07;4.83;;;3.70;83.80;;;;;;5030835;28;20212;-74
2023/03/27 04:50:23;;;;;;;9.80;2.47;;;3.80;84.40;;;;;;5032834;28;20451;-73
2023/03/27 04:52:50;;;;;;;12.90;4.20;;;3.70;82.70;;;;;;5031851;28;20459;-73
2023/03/27 04:55:17;;;;;;;8.53;3.53;;;3.70;81.70;;;;;;5034033;28;20427;-73
2023/03/27 04:57:46;;;;;;;6.93;3.20;;;3.70;82.10;;;;;;5033164;28;20465;-72
2023/03/27 05:05:53;;;;;;;16.50;3.87;;;3.50;80.80;;;;;;5249283;22;20291;-73
2023/03/27 05:08:19;;;;;;;5.87;3.00;;;3.50;81.10;;;;;;4986721;28;20449;-74
2023/03/27 05:10:45;;;;;;;9.60;2.77;;;3.40;80.50;;;;;;4984812;28;20819;-73
2023/03/27 05:13:11;;;;;;;7.37;3.50;;;3.40;81.10;;;;;;4988821;28;20209;-74
2023/03/27 05:15:37;;;;;;;7.53;2.67;;;3.40;80.60;;;;;;4990763;28;20445;-74
2023/03/27 05:18:05;;;;;;;7.30;2.57;;;3.30;80.60;;;;;;4991740;28;20480;-74
2023/03/27 05:20:31;;;;;;;10.13;2.73;;;3.20;80.50;;;;;;4990679;28;20448;-73
2023/03/27 05:22:57;;;;;;;6.73;2.53;;;3.10;79.90;;;;;;4989912;28;20457;-74
2023/03/27 05:25:23;;;;;;;4.63;2.57;;;3.00;79.30;;;;;;4992056;28;20571;-73
2023/03/27 05:27:51;;;;;;;8.33;2.70;;;3.00;79.60;;;;;;4990543;28;20244;-74
2023/03/27 05:30:19;;;;;;;5.33;2.33;;;3.00;79.60;;;;;;4992828;28;20504;-74
2023/03/27 05:32:50;;;;;;;9.77;3.50;;;3.00;79.50;;;;;;4991309;28;20454;-73
2023/03/27 05:35:17;;;;;;;13.10;3.20;;;2.90;79.20;;;;;;4993596;28;20452;-74
2023/03/27 05:37:47;;;;;;;7.23;2.43;;;2.90;79.00;;;;;;4989334;28;20879;-73
2023/03/27 05:40:15;;;;;;;7.93;2.03;;;2.80;78.70;;;;;;4991718;28;20693;-73
2023/03/27 05:42:43;;;;;;;6.73;2.50;;;2.80;79.30;;;;;;4989659;28;20819;-74
2023/03/27 05:45:09;;;;;;;8.23;2.50;;;2.80;78.60;;;;;;4992363;28;20496;-73
2023/03/27 05:47:52;;;;;;;7.30;3.20;;;2.90;79.30;;;;;;4991854;28;20513;-74
2023/03/27 05:50:21;;;;;;;9.35;3.00;;;2.90;79.00;;;;;;4988352;28;20426;-73
2023/03/27 05:52:46;;;;;;;10.13;2.97;;;2.90;79.20;;;;;;4994374;28;20597;-74
2023/03/27 05:55:13;;;;;;;5.80;2.50;;;2.90;79.00;;;;;;4989866;28;20440;-73
2023/03/27 05:57:40;;;;;;;5.63;2.50;;;2.80;79.20;;;;;;4991388;28;20199;-74
2023/03/27 06:00:15;;;;;;;9.98;2.95;;;2.90;78.70;;;;;;4992527;28;20208;-73
2023/03/27 06:02:42;;;;;;;9.33;2.43;;;2.90;79.20;;;;;;4990218;28;20671;-74
2023/03/27 06:05:12;;;;;;;8.33;2.33;;;3.00;79.60;;;;;;4994575;28;20457;-75
2023/03/27 06:07:37;;;;;;;10.40;3.00;;;2.90;78.40;;;;;;4994528;28;20434;-74
2023/03/27 06:10:06;;;;;;;17.27;3.23;;;2.90;79.00;;;;;;4990558;28;20484;-73
2023/03/27 06:12:32;;;;;;;5.38;3.10;;;2.90;79.30;;;;;;4986407;28;20207;-75
2023/03/27 06:14:58;;;;;;;8.33;2.83;;;3.00;79.20;;;;;;4991930;28;20224;-74
2023/03/27 06:17:23;;;;;;;10.30;2.70;;;3.00;78.70;;;;;;4990951;28;20589;-74
2023/03/27 06:19:49;;;;;;;5.90;2.33;;;3.00;78.00;;;;;;4990815;28;20183;-74
2023/03/27 06:22:14;;;;;;;6.83;2.80;;;3.00;78.40;;;;;;4990121;28;20202;-74
2023/03/27 06:24:41;;;;;;;5.23;2.23;;;3.10;78.90;;;;;;4991852;28;20221;-74
2023/03/27 06:27:07;;;;;;;9.77;2.43;;;3.00;78.60;;;;;;4995673;28;20190;-74
2023/03/27 06:29:33;;;;;;;7.23;3.00;;;3.00;78.70;;;;;;4991923;28;20441;-74
2023/03/27 06:32:00;;;;;;;11.30;2.30;;;3.10;78.90;;;;;;4990497;28;20469;-74
2023/03/27 06:34:26;;;;;;;5.37;2.20;;;3.10;78.10;;;;;;4992718;28;20252;-74
2023/03/27 06:36:51;;;;;;;8.33;2.77;;;3.00;78.00;;;;;;4991337;28;20469;-74
2023/03/27 06:39:17;;;;;;;7.60;2.40;;;3.10;78.40;;;;;;4990492;28;20924;-75
2023/03/27 06:41:42;;;;;;;8.03;2.60;;;3.10;77.80;;;;;;4990510;28;20601;-74
2023/03/27 06:44:08;;;;;;;6.00;1.67;;;3.20;78.10;;;;;;4995999;28;20183;-74
2023/03/27 06:46:34;;;;;;;7.97;2.80;;;3.10;77.30;;;;;;4996776;28;20178;-74
2023/03/27 06:49:00;;;;;;;6.40;2.50;;;2.90;77.70;;;;;;4997576;28;20199;-74
2023/03/27 06:51:25;;;;;;;7.33;2.47;;;2.90;78.30;;;;;;4989459;28;20209;-74
2023/03/27 06:53:52;;;;;;;7.20;2.93;;;3.00;78.10;;;;;;4987252;28;20900;-74
2023/03/27 06:56:18;;;;;;;5.80;2.67;;;3.00;77.70;;;;;;4989910;28;20175;-74
2023/03/27 06:58:44;;;;;;;15.87;3.20;;;3.10;78.10;;;;;;4990470;28;20533;-74
2023/03/27 07:01:10;;;;;;;10.83;2.80;;;3.10;77.80;;;;;;4990964;28;20569;-74
2023/03/27 07:03:36;;;;;;;12.33;2.90;;;3.10;77.40;;;;;;4991306;28;20859;-74
2023/03/27 07:06:02;;;;;;;6.37;2.37;;;3.10;77.30;;;;;;4991874;28;20438;-75
2023/03/27 07:08:28;;;;;;;11.03;2.40;;;2.90;76.80;;;;;;4988867;28;20186;-74
2023/03/27 07:10:54;;;;;;;7.07;2.57;;;2.90;77.10;;;;;;4992538;28;20246;-73
2023/03/27 07:13:19;;;;;;;13.17;2.57;;;2.90;77.60;;;;;;4990743;28;20560;-74
2023/03/27 07:15:45;;;;;;;11.30;3.70;;;3.00;77.80;;;;;;4992213;28;20430;-74
2023/03/27 07:18:11;;;;;;;7.50;2.23;;;3.20;78.00;;;;;;4991088;28;20748;-74
2023/03/27 07:20:36;;;;;;;4.83;2.47;;;3.10;76.50;;;;;;4993491;28;20177;-74
2023/03/27 07:23:03;;;;;;;8.93;2.33;;;3.20;76.50;;;;;;4986638;28;20203;-74
2023/03/27 07:25:36;;;;;;;9.13;2.30;;;3.10;75.80;;;;;;4991840;28;20174;-73
2023/03/27 07:28:08;;;;;;;6.83;2.07;;;2.90;75.90;;;;;;4991730;28;20434;-73
2023/03/27 07:30:34;;;;;;;3.60;2.37;;;2.90;76.80;;;;;;4992254;28;20417;-73
2023/03/27 07:33:00;;;;;;;16.37;2.83;;;3.00;76.40;;;;;;4998914;28;20449;-74
2023/03/27 07:35:26;;;;;;;12.20;3.40;;;3.00;75.90;;;;;;4998044;28;20452;-72
2023/03/27 07:37:53;;;;;;;10.40;2.90;;;3.00;75.80;;;;;;4995576;28;20214;-74
2023/03/27 07:40:22;;;;;;;3.73;2.50;;;3.20;76.10;;;;;;4996117;28;20597;-74
2023/03/27 07:42:49;;;;;;;4.97;2.10;;;3.30;75.50;;;;;;4990973;28;20968;-73
2023/03/27 07:45:18;;;;;;;12.10;2.40;;;3.40;74.80;;;;;;4993662;28;20445;-74
2023/03/27 07:47:45;;;;;;;4.80;2.17;;;3.40;74.90;;;;;;4996504;28;20505;-74
2023/03/27 07:50:13;;;;;;;6.60;2.63;;;3.40;74.50;;;;;;4990766;28;20430;-73
2023/03/27 07:52:39;;;;;;;11.27;2.73;;;3.40;74.30;;;;;;4989228;28;20508;-74
2023/03/27 07:55:06;;;;;;;9.70;3.10;;;3.50;74.50;;;;;;4993348;28;20418;-74
2023/03/27 07:57:36;;;;;;;3.73;2.17;;;3.50;74.30;;;;;;4986074;28;20492;-73
2023/03/27 08:00:02;;;;;;;8.43;2.53;;;3.50;73.60;;;;;;4991024;28;20456;-73
2023/03/27 08:02:29;;;;;;;13.17;2.83;;;3.50;73.30;;;;;;4989296;28;20515;-74
2023/03/27 08:04:55;;;;;;;8.97;2.37;;;3.60;73.60;;;;;;4991235;28;20508;-73
2023/03/27 08:07:21;;;;;;;4.83;2.13;;;3.60;73.30;;;;;;4990008;28;20472;-74
2023/03/27 08:09:47;;;;;;;9.43;2.67;;;3.50;72.70;;;;;;4992790;28;20991;-72
2023/03/27 08:12:14;;;;;;;17.70;3.27;;;3.60;73.50;;;;;;4993143;28;20457;-74
2023/03/27 08:14:40;;;;;;;8.00;3.20;;;3.50;72.00;;;;;;4995555;28;20433;-73
2023/03/27 08:17:05;;;;;;;8.80;2.10;;;3.50;72.40;;;;;;4991003;28;20464;-74
2023/03/27 08:19:32;;;;;;;10.87;2.40;;;3.50;72.30;;;;;;4997704;28;20688;-73
2023/03/27 08:21:58;;;;;;;7.30;2.10;;;3.50;72.40;;;;;;4995651;28;20198;-74
2023/03/27 08:24:23;;;;;;;8.70;2.87;;;3.50;72.30;;;;;;4995685;28;20791;-73
2023/03/27 08:26:49;;;;;;;8.33;2.30;;;3.60;72.00;;;;;;4997370;28;20182;-72
2023/03/27 08:29:15;;;;;;;7.57;2.20;;;3.50;71.70;;;;;;4998001;28;20625;-73
2023/03/27 08:31:42;;;;;;;9.10;2.47;;;3.50;72.10;;;;;;4995969;28;20206;-74
2023/03/27 08:34:08;;;;;;;4.47;1.80;;;3.40;71.10;;;;;;4994134;28;21147;-73
2023/03/27 08:36:33;;;;;;;3.83;2.10;;;3.40;72.30;;;;;;4990114;28;20548;-75
2023/03/27 08:39:01;;;;;;;11.63;2.60;;;3.40;72.40;;;;;;4994502;28;20520;-72
2023/03/27 08:41:37;;;;;;;5.70;1.90;;;3.50;72.40;;;;;;4993182;28;20209;-73
2023/03/27 08:44:08;;;;;;;5.93;2.50;;;3.70;72.30;;;;;;4994476;28;20484;-73
2023/03/27 08:47:00;;;;;;;9.13;2.30;;;3.80;71.60;;;;;;4994089;28;20418;-72
2023/03/27 08:49:32;;;;;;;5.10;1.60;;;3.90;71.80;;;;;;4984254;28;20513;-73
2023/03/27 08:52:04;;;;;;;5.80;2.03;;;3.90;71.40;;;;;;4991960;28;20833;-73
2023/03/27 08:54:33;;;;;;;8.23;2.73;;;3.90;70.80;;;;;;4995522;28;20943;-74
2023/03/27 08:56:59;;;;;;;5.03;1.53;;;3.90;69.90;;;;;;4993959;28;20465;-73
2023/03/27 08:59:30;;;;;;;15.90;2.70;;;3.70;70.40;;;;;;4994689;28;20452;-74
2023/03/27 09:02:38;;;;;;;5.03;2.40;;;3.70;71.30;;;;;;4989288;28;20762;-74
2023/03/27 09:05:20;;;;;;;6.10;1.57;;;3.90;71.30;;;;;;4978183;28;20445;-74
2023/03/27 09:07:58;;;;;;;4.90;1.90;;;4.00;70.40;;;;;;4975779;28;20430;-72
2023/03/27 09:10:43;;;;;;;7.47;1.60;;;4.10;69.70;;;;;;4974365;28;21280;-72
2023/03/27 09:13:15;;;;;;;6.20;2.10;;;4.20;68.60;;;;;;4971218;28;20557;-74
2023/03/27 09:15:44;;;;;;;8.47;2.10;;;4.40;69.20;;;;;;4966376;28;20434;-72
2023/03/27 09:18:10;;;;;;;3.00;1.50;;;4.70;68.90;;;;;;4971491;28;21092;-72
2023/03/27 09:20:49;;;;;;;7.10;2.10;;;4.80;68.80;;;;;;4972838;28;20501;-75
2023/03/27 09:23:20;;;;;;;6.83;1.80;;;4.60;68.50;;;;;;4970756;28;20594;-72
2023/03/27 09:25:54;;;;;;;7.30;1.93;;;4.50;68.00;;;;;;4971716;28;20422;-73
2023/03/27 09:28:23;;;;;;;5.87;2.53;;;4.60;68.20;;;;;;4978557;28;20441;-74
2023/03/27 09:30:49;;;;;;;7.17;2.17;;;4.70;68.20;;;;;;4975514;28;21064;-74
2023/03/27 09:33:15;;;;;;;6.30;2.03;;;4.80;67.90;;;;;;4972689;28;20500;-73
2023/03/27 09:35:41;;;;;;;5.37;1.97;;;4.90;66.40;;;;;;4976721;28;20435;-73
2023/03/27 09:38:22;;;;;;;4.47;1.80;;;5.10;66.90;;;;;;4982496;28;20218;-73
2023/03/27 09:41:14;;;;;;;9.07;1.80;;;4.90;65.40;;;;;;4988992;28;20430;-71
2023/03/27 09:44:09;;;;;;;6.27;1.83;;;4.80;66.60;;;;;;4989403;28;20934;-74
2023/03/27 09:46:38;;;;;;;6.67;1.80;;;4.80;65.60;;;;;;4989658;28;20426;-74
2023/03/27 09:49:20;;;;;;;7.20;1.83;;;4.90;66.40;;;;;;4998874;28;20432;-72
2023/03/27 09:51:46;;;;;;;11.40;2.07;;;5.10;65.00;;;;;;4989439;28;20509;-74
2023/03/27 09:54:15;;;;;;;5.37;1.77;;;5.00;65.40;;;;;;4993806;28;20844;-72
2023/03/27 09:57:09;;;;;;;8.13;1.83;;;5.20;65.00;;;;;;4989540;28;20656;-72
2023/03/27 09:59:55;;;;;;;5.27;1.83;;;5.20;65.30;;;;;;4993789;28;20422;-72
2023/03/27 10:02:24;;;;;;;4.70;2.03;;;5.20;64.40;;;;;;4985954;28;20461;-73
2023/03/27 10:05:17;;;;;;;3.73;1.90;;;5.10;64.10;;;;;;4995159;28;20485;-73
2023/03/27 10:07:43;;;;;;;6.70;2.43;;;5.20;64.80;;;;;;4994787;28;20448;-72
2023/03/27 10:10:12;;;;;;;8.17;3.27;;;5.20;60.10;;;;;;4993916;28;20418;-73
2023/03/27 10:12:39;;;;;;;4.93;1.80;;;5.10;59.90;;;;;;4988688;28;20461;-74
2023/03/27 10:15:25;;;;;;;11.83;2.23;;;5.00;62.50;;;;;;4995155;28;20524;-73
2023/03/27 10:17:51;;;;;;;5.23;1.90;;;5.10;63.20;;;;;;4987361;28;20836;-74
2023/03/27 10:20:19;;;;;;;8.53;2.57;;;5.30;63.20;;;;;;4993225;28;20537;-74
2023/03/27 10:22:58;;;;;;;6.87;2.43;;;5.40;60.00;;;;;;4992446;28;20466;-73
2023/03/27 10:25:38;;;;;;;4.77;2.40;;;5.40;61.90;;;;;;4992174;28;21094;-74
2023/03/27 10:28:25;;;;;;;7.77;1.80;;;5.40;62.30;;;;;;4991820;28;20849;-76
2023/03/27 10:31:03;;;;;;;3.70;1.70;;;5.40;59.70;;;;;;4993255;28;20430;-73
2023/03/27 10:33:35;;;;;;;6.30;2.00;;;5.20;59.10;;;;;;4992732;28;20444;-73
2023/03/27 10:36:03;;;;;;;6.63;2.20;;;5.20;59.90;;;;;;4993489;28;20433;-71
2023/03/27 10:38:30;;;;;;;11.10;2.67;;;5.40;60.10;;;;;;4994997;28;20471;-74
2023/03/27 10:40:56;;;;;;;4.90;1.77;;;5.60;60.60;;;;;;4998040;28;20418;-75
2023/03/27 10:43:36;;;;;;;11.40;2.03;;;5.80;59.20;;;;;;4994342;28;20783;-71
2023/03/27 10:46:29;;;;;;;11.07;2.57;;;5.90;59.60;;;;;;4994748;28;20173;-72
2023/03/27 10:49:13;;;;;;;4.17;2.10;;;6.40;60.30;;;;;;4986829;28;20484;-73
2023/03/27 10:51:50;;;;;;;6.97;2.20;;;6.50;54.60;;;;;;4987025;28;20469;-72
2023/03/27 10:54:30;;;;;;;4.00;2.43;;;6.30;53.00;;;;;;4992114;28;20416;-74
2023/03/27 10:57:08;;;;;;;10.53;3.17;;;6.60;54.40;;;;;;4991160;28;20461;-74
2023/03/27 10:59:41;;;;;;;3.63;1.83;;;7.10;54.10;;;;;;4988897;28;20984;-74
2023/03/27 11:02:22;;;;;;;2.60;1.83;;;7.70;53.40;;;;;;4982407;28;20582;-72
2023/03/27 11:04:53;;;;;;;11.80;2.77;;;8.10;53.80;;;;;;4991329;28;20548;-73
2023/03/27 11:07:36;;;;;;;7.90;2.37;;;8.40;54.40;;;;;;4988821;28;20422;-73
2023/03/27 11:10:27;;;;;;;5.30;2.20;;;8.20;54.60;;;;;;4990852;28;20418;-73
2023/03/27 11:13:17;;;;;;;5.50;1.93;;;8.10;54.40;;;;;;4989621;28;20457;-74
2023/03/27 11:15:48;;;;;;;5.83;2.20;;;8.00;52.60;;;;;;4991199;28;20438;-72
2023/03/27 11:18:36;;;;;;;5.00;1.83;;;8.40;50.60;;;;;;4989864;28;20473;-74
2023/03/27 11:21:07;;;;;;;4.13;1.93;;;8.50;49.30;;;;;;4986461;28;20796;-74
2023/03/27 11:23:56;;;;;;;6.63;2.17;;;8.60;49.40;;;;;;4985706;28;20417;-72
2023/03/27 11:26:34;;;;;;;5.20;2.00;;;7.40;48.10;;;;;;4983698;28;20429;-72
2023/03/27 11:29:12;;;;;;;6.30;1.67;;;7.00;50.70;;;;;;4988761;28;20433;-73
2023/03/27 11:31:44;;;;;;;4.60;1.83;;;7.00;51.40;;;;;;4979107;28;20454;-72
2023/03/27 11:34:24;;;;;;;5.50;1.97;;;7.40;51.70;;;;;;4989039;28;20945;-72
2023/03/27 11:36:55;;;;;;;8.40;2.30;;;7.80;51.00;;;;;;4991425;28;20496;-71
2023/03/27 11:39:35;;;;;;;4.53;1.60;;;7.80;50.90;;;;;;4989828;28;20914;-74
2023/03/27 11:42:12;;;;;;;8.93;2.37;;;7.60;52.90;;;;;;4986119;28;20461;-73
2023/03/27 11:44:37;;;;;;;6.83;2.17;;;7.40;54.20;;;;;;4990928;28;20951;-71
2023/03/27 11:47:12;;;;;;;4.43;2.20;;;7.10;54.60;;;;;;4989662;28;20422;-72
2023/03/27 11:49:53;;;;;;;5.43;2.90;;;6.90;56.50;;;;;;4990345;28;20190;-71
2023/03/27 11:52:39;;;;;;;8.67;2.23;;;6.60;58.50;;;;;;4985008;28;20572;-73
2023/03/27 11:55:38;;;;;;;7.80;1.90;;;6.30;57.80;;;;;;4990745;28;20813;-73
2023/03/27 11:58:25;;;;;;;9.33;2.43;;;6.60;56.80;;;;;;4986325;28;20464;-71
2023/03/27 12:01:20;;;;;;;4.97;1.97;;;7.10;55.30;;;;;;4986957;28;20417;-72
2023/03/27 12:03:57;;;;;;;5.23;2.00;;;7.80;55.60;;;;;;4990433;28;20422;-72
2023/03/27 12:07:04;;;;;;;5.20;2.10;;;8.60;52.60;;;;;;4988725;28;20443;-73
2023/03/27 12:09:47;;;;;;;4.57;1.70;;;8.50;52.00;;;;;;4970958;28;20517;-73
2023/03/27 12:12:46;;;;;;;3.43;2.20;;;8.20;51.80;;;;;;4985275;28;20584;-72
2023/03/27 12:15:41;;;;;;;2.23;1.40;;;8.20;52.10;;;;;;4989339;28;20430;-73
2023/03/27 12:18:21;;;;;;;6.37;2.00;;;8.20;48.30;;;;;;4989152;28;20584;-71
2023/03/27 12:20:59;;;;;;;7.03;1.90;;;8.00;47.50;;;;;;4989424;28;20429;-73
2023/03/27 12:23:51;;;;;;;3.10;1.50;;;8.20;47.50;;;;;;4989984;28;20455;-72
2023/03/27 12:26:22;;;;;;;2.40;1.63;;;8.40;47.30;;;;;;4987810;28;21196;-71
2023/03/27 12:29:28;;;;;;;3.60;1.83;;;8.00;48.90;;;;;;4988825;28;20434;-71
2023/03/27 12:32:07;;;;;;;5.10;1.70;;;8.00;49.30;;;;;;4986920;28;20463;-72
2023/03/27 12:34:51;;;;;;;3.83;2.00;;;7.80;50.10;;;;;;4984733;28;20929;-74
2023/03/27 12:37:23;;;;;;;7.53;1.57;;;8.00;49.80;;;;;;4986855;28;20483;-73
2023/03/27 12:39:53;;;;;;;4.73;1.93;;;8.30;49.70;;;;;;4986795;28;20431;-72
2023/03/27 12:42:48;;;;;;;5.93;2.07;;;8.50;49.10;;;;;;4982855;28;20589;-72
2023/03/27 12:45:22;;;;;;;7.53;1.60;;;8.80;47.80;;;;;;4990189;28;20936;-74
2023/03/27 12:48:08;;;;;;;2.30;1.60;;;8.50;48.70;;;;;;4990183;28;20488;-73
2023/03/27 12:50:50;;;;;;;5.50;1.90;;;8.30;50.60;;;;;;4989750;28;20523;-73
2023/03/27 12:53:38;;;;;;;2.23;1.60;;;8.60;51.20;;;;;;4985532;28;21375;-72
2023/03/27 12:56:16;;;;;;;7.13;1.50;;;9.00;50.30;;;;;;4985227;28;20497;-72
2023/03/27 12:58:44;;;;;;;3.97;2.03;;;8.50;51.20;;;;;;4992378;28;20495;-73
2023/03/27 13:01:16;;;;;;;4.70;1.70;;;8.40;52.90;;;;;;4992290;28;20453;-74
2023/03/27 13:03:41;;;;;;;3.10;1.83;;;8.30;52.20;;;;;;4996934;28;20429;-72
2023/03/27 13:06:41;;;;;;;3.13;1.40;;;8.80;51.40;;;;;;4997448;28;20441;-73
2023/03/27 13:09:22;;;;;;;6.17;2.53;;;9.00;50.20;;;;;;4991788;28;20202;-72
2023/03/27 13:12:09;;;;;;;6.53;1.90;;;8.60;51.20;;;;;;4985491;28;20467;-73
2023/03/27 13:14:54;;;;;;;4.27;1.60;;;8.60;51.40;;;;;;4994436;28;20433;-72
2023/03/27 13:17:50;;;;;;;8.37;1.73;;;8.50;52.50;;;;;;4991317;28;20476;-73
2023/03/27 13:20:49;;;;;;;2.33;1.50;;;8.20;53.30;;;;;;4988007;28;20410;-71
2023/03/27 13:23:35;;;;;;;2.80;1.33;;;7.80;53.70;;;;;;4990475;28;20457;-72
2023/03/27 13:26:32;;;;;;;7.17;2.10;;;7.60;55.40;;;;;;4993074;28;20440;-74
2023/03/27 13:28:58;;;;;;;11.00;2.20;;;7.40;56.50;;;;;;4987843;28;20470;-74